Time;durP1;ratioP1;P1;durP2;ratioP2;P2;SDS_P1;SDS_P2;PMS_P1;PMS_P2;Temp;Humidity;BMP_temperature;BMP_pressure;BME280_temperature;BME280_humidity;BME280_pressure;Samples;Min_cycle;Max_cycle;Signal;HPM_P1;HPM_P2
2022/05/22 00:01:41;;;;;;;9.60;5.40;;;;;;;12.23;78.18;101897.16;4990224;28;20110;-64
2022/05/22 00:04:07;;;;;;;10.85;5.60;;;;;;;12.21;78.12;101888.66;4990306;28;20077;-63
2022/05/22 00:06:33;;;;;;;10.38;5.72;;;;;;;12.22;78.73;101879.91;4990012;28;20033;-64
2022/05/22 00:08:58;;;;;;;13.48;6.28;;;;;;;12.21;78.27;101873.03;4990128;28;20521;-64
2022/05/22 00:11:23;;;;;;;11.93;6.38;;;;;;;12.23;78.47;101876.34;4989370;28;20062;-63
2022/05/22 00:13:49;;;;;;;11.43;6.30;;;;;;;12.22;78.56;101869.50;4989798;28;20026;-63
2022/05/22 00:19:00;;;;;;;13.98;6.50;;;;;;;12.23;77.73;101860.75;4990187;28;20040;-63
2022/05/22 00:21:25;;;;;;;13.50;6.70;;;;;;;12.19;77.96;101851.50;4982594;28;20339;-64
2022/05/22 00:23:50;;;;;;;14.07;6.30;;;;;;;12.25;77.15;101852.00;4978878;28;20026;-65
2022/05/22 00:26:16;;;;;;;11.70;6.53;;;;;;;12.22;77.17;101853.88;4974708;28;20141;-63
2022/05/22 00:28:41;;;;;;;13.15;6.40;;;;;;;12.18;77.75;101856.81;4989710;28;20027;-63
2022/05/22 00:31:07;;;;;;;13.68;6.75;;;;;;;12.26;77.56;101853.66;4980701;28;20035;-65
2022/05/22 00:33:32;;;;;;;13.00;7.20;;;;;;;12.19;77.13;101856.69;4952428;28;20045;-63
2022/05/22 00:35:57;;;;;;;13.13;7.30;;;;;;;12.20;77.20;101860.94;4969773;28;20062;-64
2022/05/22 00:38:23;;;;;;;13.80;6.82;;;;;;;12.06;77.67;101862.91;4981851;28;20442;-64
2022/05/22 00:40:48;;;;;;;12.23;7.03;;;;;;;11.99;77.34;101865.09;4989307;28;20034;-63
2022/05/22 00:43:39;;;;;;;14.85;7.10;;;;;;;11.98;77.76;101855.63;4989349;28;20459;-63
2022/05/22 00:46:08;;;;;;;12.50;7.18;;;;;;;11.83;77.90;101861.94;4980203;28;20030;-63
2022/05/22 00:48:35;;;;;;;12.95;7.43;;;;;;;11.81;78.32;101861.16;4956162;28;20037;-63
2022/05/22 00:51:10;;;;;;;12.02;7.05;;;;;;;11.75;79.05;101851.19;4974739;28;20058;-63
2022/05/22 00:53:41;;;;;;;13.32;7.32;;;;;;;11.69;78.43;101848.06;4980263;28;20026;-63
2022/05/22 00:56:10;;;;;;;13.13;7.35;;;;;;;11.64;78.30;101847.59;4987996;28;20030;-63
2022/05/22 00:58:36;;;;;;;15.38;6.95;;;;;;;11.57;78.62;101830.75;4978366;28;20029;-64
2022/05/22 01:01:03;;;;;;;15.40;7.82;;;;;;;11.61;79.21;101837.41;4980380;28;20473;-63
2022/05/22 01:03:29;;;;;;;11.30;6.72;;;;;;;11.55;78.46;101824.84;4988452;28;20074;-63
2022/05/22 01:06:01;;;;;;;15.05;8.02;;;;;;;11.53;79.57;101834.53;4988270;28;20516;-63
2022/05/22 01:08:27;;;;;;;12.75;7.63;;;;;;;11.48;78.87;101833.19;4977409;28;20038;-65
2022/05/22 01:11:20;;;;;;;12.57;7.20;;;;;;;11.46;79.47;101838.44;4987150;28;20037;-64
2022/05/22 01:14:11;;;;;;;12.55;6.97;;;;;;;11.52;79.01;101853.63;4985597;28;20078;-63
2022/05/22 01:16:37;;;;;;;10.40;6.90;;;;;;;11.33;79.99;101842.84;4981956;28;20042;-63
2022/05/22 01:19:11;;;;;;;13.45;7.78;;;;;;;11.32;80.17;101856.78;4988695;28;20033;-64
2022/05/22 01:21:38;;;;;;;12.32;7.18;;;;;;;11.28;79.89;101837.13;4988235;28;20092;-63
2022/05/22 01:24:04;;;;;;;13.35;7.93;;;;;;;11.28;80.04;101842.31;4985890;28;20030;-63
2022/05/22 01:26:30;;;;;;;14.65;7.90;;;;;;;11.26;79.96;101846.81;4980434;28;20233;-63
2022/05/22 01:28:56;;;;;;;15.77;7.93;;;;;;;11.27;80.10;101854.47;4970790;28;20034;-63
2022/05/22 01:31:21;;;;;;;15.05;8.07;;;;;;;11.26;80.87;101841.59;4988582;28;20022;-64
2022/05/22 01:33:47;;;;;;;12.23;7.20;;;;;;;11.20;80.50;101831.63;4970948;28;20499;-64
2022/05/22 01:36:15;;;;;;;12.77;7.72;;;;;;;11.16;80.75;101837.03;4988527;28;20588;-63
2022/05/22 01:38:41;;;;;;;12.20;7.65;;;;;;;11.21;80.02;101843.69;4987814;28;20029;-64
2022/05/22 01:41:06;;;;;;;12.75;8.05;;;;;;;11.06;81.04;101835.97;4981297;28;20022;-63
2022/05/22 01:43:32;;;;;;;14.10;8.05;;;;;;;11.09;81.46;101835.78;4973982;28;20033;-64
2022/05/22 01:45:58;;;;;;;13.98;8.45;;;;;;;11.17;80.88;101838.69;4980900;28;20026;-64
2022/05/22 01:48:24;;;;;;;14.52;7.80;;;;;;;11.17;80.78;101832.66;4970042;28;20038;-64
2022/05/22 01:50:50;;;;;;;12.70;7.57;;;;;;;11.12;80.88;101835.56;4987936;28;20510;-64
2022/05/22 01:53:17;;;;;;;13.93;7.97;;;;;;;11.11;80.89;101828.72;4988316;28;20068;-63
2022/05/22 01:55:42;;;;;;;13.77;7.90;;;;;;;11.12;81.55;101829.53;4987524;28;20040;-64
2022/05/22 01:58:08;;;;;;;13.38;7.82;;;;;;;11.02;81.95;101824.16;4985190;28;20030;-62
2022/05/22 02:00:35;;;;;;;15.18;8.88;;;;;;;11.11;81.55;101831.31;4978045;28;20069;-62
2022/05/22 02:03:00;;;;;;;13.65;8.40;;;;;;;11.10;81.34;101832.25;4968711;28;20452;-64
2022/05/22 02:05:26;;;;;;;12.60;7.70;;;;;;;11.11;81.24;101831.31;4968269;28;20031;-63
2022/05/22 02:10:37;;;;;;;14.05;8.43;;;;;;;11.14;81.62;101818.13;4968403;28;20592;-64
2022/05/22 02:13:03;;;;;;;13.05;8.23;;;;;;;11.07;80.85;101827.28;4978482;28;20029;-65
2022/05/22 02:15:28;;;;;;;12.07;8.45;;;;;;;11.00;81.29;101805.25;4974815;28;20034;-65
2022/05/22 02:17:55;;;;;;;11.90;8.20;;;;;;;10.94;81.31;101808.25;4968286;28;20033;-66
2022/05/22 02:20:20;;;;;;;13.07;8.80;;;;;;;11.00;81.76;101814.78;4966973;28;20034;-64
2022/05/22 02:22:48;;;;;;;14.60;8.70;;;;;;;11.02;82.06;101803.41;4968613;28;20485;-63
2022/05/22 02:25:19;;;;;;;15.18;8.50;;;;;;;11.09;81.80;101793.41;4968828;28;20058;-63
2022/05/22 02:27:45;;;;;;;14.38;9.02;;;;;;;11.17;81.15;101797.13;4983689;28;20482;-63
2022/05/22 02:30:14;;;;;;;15.98;9.65;;;;;;;11.21;81.52;101796.94;4987605;28;20049;-67
2022/05/22 02:32:39;;;;;;;;;;;;;;;11.38;80.58;101788.81;4979686;28;20061;-63
2022/05/22 02:35:06;;;;;;;14.77;9.90;;;;;;;11.25;80.62;101788.00;4979740;28;19969;-63
2022/05/22 02:37:38;;;;;;;14.25;9.38;;;;;;;11.26;81.38;101784.47;4973356;28;20665;-63
2022/05/22 02:40:04;;;;;;;14.90;9.93;;;;;;;11.23;81.78;101779.47;4968850;28;20073;-63
2022/05/22 02:42:30;;;;;;;16.05;10.02;;;;;;;11.07;81.25;101790.94;4987786;28;20030;-63
2022/05/22 02:44:55;;;;;;;16.20;9.38;;;;;;;10.98;80.20;101786.34;4987566;28;20029;-64
2022/05/22 02:47:20;;;;;;;13.57;8.52;;;;;;;10.76;79.57;101783.53;4987527;28;20030;-63
2022/05/22 02:49:45;;;;;;;12.80;8.60;;;;;;;10.72;81.19;101769.94;4977956;28;20033;-63
2022/05/22 02:52:11;;;;;;;15.23;9.23;;;;;;;10.72;81.46;101769.09;4968531;28;20126;-65
2022/05/22 02:54:36;;;;;;;13.15;9.70;;;;;;;10.67;80.91;101765.97;4973599;28;20433;-63
2022/05/22 02:57:03;;;;;;;14.60;9.15;;;;;;;10.59;81.79;101769.94;4987722;28;20036;-63
2022/05/22 02:59:32;;;;;;;11.88;8.30;;;;;;;10.54;81.62;101765.97;4968111;28;20132;-63
2022/05/22 03:01:59;;;;;;;12.65;8.60;;;;;;;10.60;81.49;101776.78;4985638;28;20136;-65
2022/05/22 03:04:24;;;;;;;11.63;8.18;;;;;;;10.60;81.82;101775.94;4990590;28;20058;-63
2022/05/22 03:06:50;;;;;;;13.45;8.70;;;;;;;10.56;83.28;101770.16;4963846;28;20451;-63
2022/05/22 03:09:16;;;;;;;11.40;8.73;;;;;;;10.57;82.75;101777.00;4971721;28;20041;-63
2022/05/22 03:11:42;;;;;;;15.05;9.10;;;;;;;10.52;84.01;101755.72;4971744;28;20030;-64
2022/05/22 03:14:09;;;;;;;13.05;9.00;;;;;;;10.56;83.63;101754.59;4971731;28;20066;-64
2022/05/22 03:16:34;;;;;;;14.52;9.20;;;;;;;10.56;83.54;101757.19;4972600;28;20048;-64
2022/05/22 03:19:00;;;;;;;14.77;9.48;;;;;;;10.48;84.35;101743.88;4991098;28;20481;-63
2022/05/22 03:21:29;;;;;;;13.73;9.25;;;;;;;10.46;84.14;101752.69;4991080;28;20092;-63
2022/05/22 03:23:55;;;;;;;11.65;9.18;;;;;;;10.51;82.86;101746.28;4991341;28;20030;-63
2022/05/22 03:26:21;;;;;;;13.63;9.18;;;;;;;10.48;83.54;101756.84;4973451;28;20455;-65
2022/05/22 03:28:46;;;;;;;13.23;9.30;;;;;;;10.43;83.31;101758.06;4990308;28;20466;-63
2022/05/22 03:31:11;;;;;;;13.07;9.13;;;;;;;10.39;83.22;101747.09;4990935;28;20045;-66
2022/05/22 03:33:37;;;;;;;11.57;8.68;;;;;;;10.39;83.37;101747.09;4990825;28;20054;-63
2022/05/22 03:36:04;;;;;;;11.20;9.35;;;;;;;10.38;83.90;101745.44;4991065;28;21165;-63
2022/05/22 03:38:29;;;;;;;14.13;9.30;;;;;;;10.49;84.04;101742.09;4989618;28;20375;-63
2022/05/22 03:40:54;;;;;;;15.27;8.85;;;;;;;10.52;83.82;101741.91;4990352;28;20025;-63
2022/05/22 03:43:19;;;;;;;11.65;8.05;;;;;;;10.46;83.95;101743.16;4972561;28;20045;-63
2022/05/22 03:45:45;;;;;;;10.90;8.02;;;;;;;10.42;83.45;101741.69;4990622;28;20037;-63
2022/05/22 03:48:11;;;;;;;11.05;8.57;;;;;;;10.38;83.02;101750.63;4988430;28;20038;-63
2022/05/22 03:50:37;;;;;;;13.65;8.63;;;;;;;10.09;82.70;101742.97;4971001;28;20058;-63
2022/05/22 03:53:03;;;;;;;11.20;8.10;;;;;;;10.07;83.24;101739.59;4971151;28;20133;-64
2022/05/22 03:55:28;;;;;;;11.85;8.55;;;;;;;10.02;83.17;101736.47;4982920;28;20037;-63
2022/05/22 03:57:54;;;;;;;11.32;8.38;;;;;;;10.05;83.69;101753.63;4983867;28;20459;-63
2022/05/22 04:00:21;;;;;;;10.82;8.35;;;;;;;10.06;83.65;101745.72;4977866;28;20057;-63
2022/05/22 04:02:47;;;;;;;11.37;8.00;;;;;;;10.05;83.95;101744.06;4990558;28;20065;-63
2022/05/22 04:05:13;;;;;;;13.60;8.05;;;;;;;10.07;84.37;101749.97;4990424;28;20302;-63
2022/05/22 04:07:40;;;;;;;9.57;7.85;;;;;;;10.07;84.77;101752.56;4990557;28;20030;-64
2022/05/22 04:10:07;;;;;;;13.25;8.88;;;;;;;10.06;85.33;101761.28;4972163;28;20030;-64
2022/05/22 04:12:33;;;;;;;14.60;9.23;;;;;;;9.95;85.55;101740.41;4989097;28;20038;-65
2022/05/22 04:14:58;;;;;;;12.85;9.25;;;;;;;10.10;85.14;101751.56;4990125;28;20466;-63
2022/05/22 04:17:23;;;;;;;12.15;9.10;;;;;;;10.06;85.28;101750.91;4990103;28;20026;-62
2022/05/22 04:19:49;;;;;;;13.57;10.05;;;;;;;10.04;86.53;101736.41;4972677;28;20022;-64
2022/05/22 04:22:15;;;;;;;17.20;10.25;;;;;;;10.17;86.04;101728.66;4989850;28;20300;-63
2022/05/22 04:27:24;;;;;;;13.40;10.90;;;;;;;10.27;85.36;101729.75;4975322;28;20045;-62
2022/05/22 04:29:49;;;;;;;16.92;12.20;;;;;;;10.30;86.05;101711.38;4989641;28;20026;-63
2022/05/22 04:32:15;;;;;;;15.27;11.55;;;;;;;10.41;85.66;101729.66;4989593;28;20414;-63
2022/05/22 04:34:40;;;;;;;15.65;12.40;;;;;;;10.48;86.28;101730.06;4989658;28;20449;-63
2022/05/22 04:37:06;;;;;;;15.82;12.23;;;;;;;10.45;86.33;101732.88;4989781;28;20085;-65
2022/05/22 04:39:31;;;;;;;19.30;12.40;;;;;;;10.43;85.51;101740.75;4989371;28;20628;-63
2022/05/22 04:41:57;;;;;;;16.67;12.00;;;;;;;10.47;85.98;101739.63;4984352;28;20030;-62
2022/05/22 04:44:22;;;;;;;17.13;11.90;;;;;;;10.42;86.14;101733.91;4989327;28;20034;-63
2022/05/22 04:46:48;;;;;;;13.68;11.45;;;;;;;10.51;85.35;101741.09;4989412;28;20068;-63
2022/05/22 04:49:13;;;;;;;16.98;12.48;;;;;;;10.42;85.94;101740.84;4979204;28;20031;-67
2022/05/22 04:51:38;;;;;;;14.18;12.35;;;;;;;10.52;85.53;101731.53;4970167;28;20030;-63
2022/05/22 04:54:04;;;;;;;16.10;11.93;;;;;;;10.51;85.45;101733.31;4980842;28;20068;-63
2022/05/22 04:56:30;;;;;;;16.02;11.95;;;;;;;10.51;85.67;101725.53;4989184;28;20064;-62
2022/05/22 04:58:55;;;;;;;16.67;12.02;;;;;;;10.52;85.51;101732.38;4989137;28;20018;-63
2022/05/22 05:01:21;;;;;;;15.02;11.68;;;;;;;10.53;85.15;101731.44;4971985;28;20030;-63
2022/05/22 05:03:46;;;;;;;15.65;11.77;;;;;;;10.64;85.02;101731.53;4969149;28;20107;-62
2022/05/22 05:06:12;;;;;;;17.45;12.18;;;;;;;10.67;85.62;101725.34;4969770;28;20126;-63
2022/05/22 05:08:37;;;;;;;13.45;11.77;;;;;;;10.70;86.24;101729.47;4977113;28;20097;-63
2022/05/22 05:11:03;;;;;;;16.77;11.95;;;;;;;10.75;85.32;101719.63;4988153;28;20418;-63
2022/05/22 05:13:29;;;;;;;17.25;11.95;;;;;;;10.84;86.03;101719.00;4988645;28;20100;-63
2022/05/22 05:16:00;;;;;;;15.00;11.90;;;;;;;10.76;87.31;101723.88;4989481;28;20415;-63
2022/05/22 05:18:25;;;;;;;14.85;11.80;;;;;;;10.88;86.68;101723.03;4988745;28;20470;-63
2022/05/22 05:20:52;;;;;;;15.60;12.00;;;;;;;10.92;86.60;101721.88;4988628;28;20069;-63
2022/05/22 05:23:17;;;;;;;16.55;12.50;;;;;;;10.95;86.89;101721.66;4987972;28;20389;-64
2022/05/22 05:25:42;;;;;;;15.00;12.20;;;;;;;11.08;85.69;101725.09;4988547;28;20458;-63
2022/05/22 05:28:08;;;;;;;16.48;12.52;;;;;;;11.10;85.66;101728.41;4988801;28;20081;-63
2022/05/22 05:30:33;;;;;;;16.25;11.52;;;;;;;11.24;84.94;101729.19;4988573;28;20042;-66
2022/05/22 05:32:59;;;;;;;16.08;11.93;;;;;;;11.28;85.29;101728.06;4988566;28;20033;-63
2022/05/22 05:35:24;;;;;;;16.23;12.40;;;;;;;11.35;85.21;101724.09;4988249;28;20069;-63
2022/05/22 05:37:51;;;;;;;14.93;11.40;;;;;;;11.44;84.17;101736.44;4970761;28;20072;-64
2022/05/22 05:40:16;;;;;;;14.95;11.15;;;;;;;11.52;83.11;101739.31;4984326;28;20023;-63
2022/05/22 05:42:42;;;;;;;15.20;11.00;;;;;;;11.56;83.49;101730.38;4969026;28;20426;-63
2022/05/22 05:45:09;;;;;;;15.40;11.20;;;;;;;11.68;83.17;101734.69;4969035;28;20038;-67
2022/05/22 05:47:35;;;;;;;15.82;10.68;;;;;;;11.74;82.54;101732.59;4968822;28;20038;-63
2022/05/22 05:50:00;;;;;;;15.98;10.80;;;;;;;11.72;82.70;101726.69;4985308;28;20492;-64
2022/05/22 05:52:25;;;;;;;13.85;10.65;;;;;;;11.80;83.17;101716.53;4987401;28;20030;-63
2022/05/22 05:54:51;;;;;;;14.52;10.77;;;;;;;11.90;82.95;101717.56;4986505;28;20124;-63
2022/05/22 05:57:16;;;;;;;12.32;10.38;;;;;;;12.00;82.28;101723.75;4986373;28;20045;-65
2022/05/22 05:59:42;;;;;;;13.88;10.68;;;;;;;12.02;82.58;101729.66;4953614;28;20038;-63
2022/05/22 06:02:13;;;;;;;14.63;10.23;;;;;;;12.03;82.82;101728.72;4970878;28;20110;-64
2022/05/22 06:04:39;;;;;;;15.48;10.63;;;;;;;12.10;82.32;101729.97;4951291;28;20027;-63
2022/05/22 06:07:05;;;;;;;15.35;10.35;;;;;;;12.17;82.61;101736.34;4952585;28;20065;-63
2022/05/22 06:09:30;;;;;;;12.52;10.07;;;;;;;12.27;81.67;101735.66;4968665;28;20035;-66
2022/05/22 06:11:56;;;;;;;12.43;10.13;;;;;;;12.30;81.05;101732.84;4973691;28;20022;-63
2022/05/22 06:14:21;;;;;;;13.32;10.18;;;;;;;12.35;81.46;101735.94;4988261;28;20038;-63
2022/05/22 06:16:47;;;;;;;14.10;9.85;;;;;;;12.44;80.76;101730.03;4988064;28;20088;-66
2022/05/22 06:19:12;;;;;;;14.63;10.55;;;;;;;12.64;81.19;101724.16;4988484;28;20026;-63
2022/05/22 06:21:38;;;;;;;13.73;10.95;;;;;;;12.68;80.85;101736.00;4987798;28;20030;-63
2022/05/22 06:24:04;;;;;;;12.65;9.73;;;;;;;12.73;80.56;101728.69;4988109;28;20089;-63
2022/05/22 06:26:29;;;;;;;13.82;9.88;;;;;;;12.79;79.94;101736.94;4987561;28;20042;-63
2022/05/22 06:28:54;;;;;;;13.55;9.40;;;;;;;12.84;79.27;101734.81;4988194;28;20037;-64
2022/05/22 06:31:20;;;;;;;14.90;10.25;;;;;;;12.93;79.96;101739.31;4987607;28;20081;-63
2022/05/22 06:33:45;;;;;;;13.77;9.88;;;;;;;13.06;79.19;101734.81;4987045;28;20118;-64
2022/05/22 06:36:14;;;;;;;13.88;9.50;;;;;;;13.12;78.76;101734.34;4985236;28;20072;-62
2022/05/22 06:41:24;;;;;;;12.10;8.88;;;;;;;13.36;78.68;101738.59;4983950;28;20560;-64
2022/05/22 06:43:51;;;;;;;13.70;8.90;;;;;;;13.40;78.27;101727.00;4991825;28;20034;-63
2022/05/22 06:46:30;;;;;;;14.48;9.02;;;;;;;13.45;77.93;101736.13;4991694;28;20092;-63
2022/05/22 06:48:56;;;;;;;14.20;8.45;;;;;;;13.62;78.23;101747.81;4989629;28;20037;-63
2022/05/22 06:51:22;;;;;;;14.35;8.75;;;;;;;13.70;76.77;101750.63;4991616;28;20356;-66
2022/05/22 06:53:47;;;;;;;13.95;8.93;;;;;;;13.79;76.96;101744.69;4991635;28;20025;-63
2022/05/22 06:56:12;;;;;;;11.93;8.88;;;;;;;13.94;77.43;101736.59;4967660;28;20066;-63
2022/05/22 06:58:38;;;;;;;12.18;8.40;;;;;;;13.98;76.87;101744.00;4985794;28;20017;-63
2022/05/22 07:01:03;;;;;;;13.15;8.27;;;;;;;14.18;75.81;101745.00;4971192;28;20129;-63
2022/05/22 07:03:28;;;;;;;14.32;7.97;;;;;;;14.25;75.02;101748.75;4991141;28;20045;-63
2022/05/22 07:05:54;;;;;;;13.95;8.10;;;;;;;14.34;73.91;101739.34;4991136;28;20121;-63
2022/05/22 07:08:19;;;;;;;15.13;8.60;;;;;;;14.29;73.06;101721.47;4990725;28;20033;-66
2022/05/22 07:13:28;;;;;;;16.05;9.25;;;;;;;14.57;73.70;101740.09;4971722;28;20394;-63
2022/05/22 07:16:01;;;;;;;16.75;9.18;;;;;;;14.68;72.31;101734.78;4971462;28;20030;-63
2022/05/22 07:18:27;;;;;;;14.65;9.00;;;;;;;14.69;71.77;101723.38;4982352;28;20065;-64
2022/05/22 07:20:52;;;;;;;17.73;9.18;;;;;;;14.80;72.37;101719.88;4990978;28;20066;-64
2022/05/22 07:23:17;;;;;;;15.55;9.05;;;;;;;14.87;72.22;101728.81;4991455;28;20054;-63
2022/05/22 07:25:43;;;;;;;15.02;8.93;;;;;;;15.06;72.25;101735.91;4990977;28;20089;-66
2022/05/22 07:28:08;;;;;;;16.55;9.40;;;;;;;15.18;70.50;101728.78;4990586;28;20053;-63
2022/05/22 07:30:33;;;;;;;16.17;9.63;;;;;;;15.24;69.54;101734.31;4990696;28;20397;-63
2022/05/22 07:32:59;;;;;;;17.08;9.23;;;;;;;15.33;69.38;101725.66;4990694;28;20431;-65
2022/05/22 07:35:24;;;;;;;16.25;8.27;;;;;;;15.30;67.33;101733.78;4990258;28;20455;-65
2022/05/22 07:37:50;;;;;;;14.77;7.97;;;;;;;15.47;68.49;101728.84;4990790;28;20030;-63
2022/05/22 07:40:16;;;;;;;15.23;8.68;;;;;;;15.52;67.26;101727.50;4985025;28;20031;-64
2022/05/22 07:42:41;;;;;;;12.40;7.25;;;;;;;15.57;67.36;101725.31;4974928;28;20113;-65
2022/05/22 07:45:07;;;;;;;14.48;7.70;;;;;;;15.51;66.64;101725.84;4974405;28;20046;-66
2022/05/22 07:47:32;;;;;;;18.27;7.00;;;;;;;15.65;66.24;101732.50;4977362;28;20379;-63
2022/05/22 07:52:41;;;;;;;13.55;6.28;;;;;;;15.74;65.33;101710.75;4960505;28;20081;-67
2022/05/22 07:55:14;;;;;;;12.05;6.63;;;;;;;15.95;65.89;101722.88;4963045;28;20479;-63
2022/05/22 07:57:42;;;;;;;14.43;7.78;;;;;;;15.81;64.06;101730.16;4978428;28;20034;-63
2022/05/22 08:00:09;;;;;;;13.43;7.70;;;;;;;15.79;62.56;101724.25;4984550;28;20423;-63
2022/05/22 08:02:34;;;;;;;13.98;7.20;;;;;;;16.01;64.48;101709.25;4983746;28;20422;-63
2022/05/22 08:04:59;;;;;;;13.25;6.65;;;;;;;16.05;63.74;101718.44;4970924;28;20035;-63
2022/05/22 08:07:25;;;;;;;12.90;6.68;;;;;;;16.14;63.47;101710.59;4987173;28;20030;-64
2022/05/22 08:09:51;;;;;;;15.15;7.00;;;;;;;16.10;63.10;101711.84;4980418;28;20404;-64
2022/05/22 08:12:17;;;;;;;13.45;5.88;;;;;;;16.16;62.62;101710.44;4981758;28;20152;-63
2022/05/22 08:14:44;;;;;;;11.63;5.70;;;;;;;16.26;63.98;101713.88;4980323;28;20030;-65
2022/05/22 08:17:10;;;;;;;10.88;5.78;;;;;;;16.18;62.18;101703.31;4977527;28;20031;-63
2022/05/22 08:19:35;;;;;;;14.43;5.80;;;;;;;16.33;62.45;101712.34;4988018;28;20073;-63
2022/05/22 08:22:01;;;;;;;13.45;5.30;;;;;;;16.38;61.86;101694.44;4971937;28;20456;-65
2022/05/22 08:24:26;;;;;;;11.65;5.50;;;;;;;16.38;62.66;101699.66;4989835;28;20572;-63
2022/05/22 08:26:52;;;;;;;11.23;5.28;;;;;;;16.37;59.76;101705.06;4990053;28;20030;-65
2022/05/22 08:29:18;;;;;;;11.02;4.93;;;;;;;16.59;61.01;101693.41;4989960;28;20038;-64
2022/05/22 08:31:44;;;;;;;12.30;5.85;;;;;;;16.41;59.27;101686.31;4990033;28;20117;-63
2022/05/22 08:34:10;;;;;;;11.98;5.47;;;;;;;16.44;60.36;101683.38;4989647;28;20505;-64
2022/05/22 08:36:35;;;;;;;12.02;5.85;;;;;;;16.52;60.27;101674.84;4989288;28;20037;-63
2022/05/22 08:39:00;;;;;;;12.55;5.75;;;;;;;16.60;60.13;101671.50;4989108;28;20022;-64
2022/05/22 08:41:32;;;;;;;14.55;5.65;;;;;;;16.66;60.10;101665.69;4989068;28;20467;-64
2022/05/22 08:44:00;;;;;;;11.73;5.97;;;;;;;16.84;60.33;101666.59;4989484;28;20485;-63
2022/05/22 08:46:35;;;;;;;10.80;5.55;;;;;;;16.89;60.99;101666.97;4989827;28;20041;-64
2022/05/22 08:49:16;;;;;;;12.30;5.70;;;;;;;17.04;60.01;101648.16;4980701;28;20031;-63
2022/05/22 08:51:49;;;;;;;12.00;5.63;;;;;;;17.16;60.29;101652.22;4970411;28;20026;-65
2022/05/22 08:54:33;;;;;;;12.45;5.53;;;;;;;17.27;60.58;101654.63;4969517;28;20061;-65
2022/05/22 08:59:49;;;;;;;12.90;5.22;;;;;;;17.25;57.25;101641.66;4988878;28;20034;-63
2022/05/22 09:02:35;;;;;;;11.68;5.10;;;;;;;17.38;58.76;101636.06;4989023;28;20061;-63
2022/05/22 09:05:20;;;;;;;11.73;5.13;;;;;;;17.45;58.57;101631.03;4989226;28;20026;-63
2022/05/22 09:08:00;;;;;;;10.60;4.75;;;;;;;17.36;57.15;101627.50;4988508;28;20375;-63
2022/05/22 09:10:35;;;;;;;10.75;4.43;;;;;;;17.61;57.77;101619.88;4988513;28;20042;-64
2022/05/22 09:13:10;;;;;;;11.85;5.28;;;;;;;17.67;57.32;101619.25;4988742;28;20044;-65
2022/05/22 09:15:55;;;;;;;10.15;4.70;;;;;;;17.71;56.97;101610.06;4988860;28;20034;-63
2022/05/22 09:18:36;;;;;;;9.88;4.65;;;;;;;17.75;58.68;101617.53;4988281;28;20026;-62
2022/05/22 09:21:08;;;;;;;9.93;4.50;;;;;;;18.00;54.22;101621.13;4989016;28;20077;-63
2022/05/22 09:23:52;;;;;;;9.15;4.68;;;;;;;18.08;56.44;101622.19;4971033;28;20023;-63
2022/05/22 09:26:30;;;;;;;10.55;4.78;;;;;;;18.07;54.96;101615.31;4988806;28;20508;-63
2022/05/22 09:29:33;;;;;;;10.07;4.53;;;;;;;18.16;56.10;101607.28;4988639;28;20068;-63
2022/05/22 09:32:19;;;;;;;11.18;4.78;;;;;;;18.10;54.63;101596.59;4981497;28;20038;-63
2022/05/22 09:34:50;;;;;;;11.50;5.03;;;;;;;18.25;54.24;101592.44;4988100;28;20145;-62
2022/05/22 09:37:54;;;;;;;11.45;5.88;;;;;;;18.39;55.26;101598.88;4969634;28;20068;-66
2022/05/22 09:40:33;;;;;;;9.35;6.25;;;;;;;18.16;52.77;101604.66;4941415;28;20561;-63
2022/05/22 09:43:12;;;;;;;11.15;5.50;;;;;;;18.27;54.75;101595.72;4969128;28;20034;-62
2022/05/22 09:45:58;;;;;;;13.02;6.32;;;;;;;18.24;52.64;101596.03;4986051;28;20042;-62
2022/05/22 09:48:45;;;;;;;13.00;6.47;;;;;;;18.38;54.10;101592.81;4944808;28;20042;-67
2022/05/22 09:51:13;;;;;;;11.85;6.70;;;;;;;18.40;53.21;101596.09;4976465;28;20043;-64
2022/05/22 09:53:45;;;;;;;11.88;6.55;;;;;;;18.56;54.39;101595.34;4986099;28;20117;-62
2022/05/22 09:56:36;;;;;;;11.43;7.47;;;;;;;18.65;54.37;101598.84;4983904;28;20042;-62
2022/05/22 09:59:13;;;;;;;12.52;7.45;;;;;;;18.66;53.98;101595.22;4984594;28;20030;-65
2022/05/22 10:01:46;;;;;;;13.07;7.40;;;;;;;18.64;53.13;101597.16;4972558;28;20475;-64
2022/05/22 10:04:17;;;;;;;11.65;6.90;;;;;;;18.84;52.31;101595.97;4970273;28;20085;-63
2022/05/22 10:07:16;;;;;;;10.73;6.63;;;;;;;18.82;53.10;101590.03;4970504;28;20030;-62
2022/05/22 10:10:06;;;;;;;12.95;7.88;;;;;;;18.80;51.55;101584.09;4970817;28;20126;-64
2022/05/22 10:13:07;;;;;;;12.35;6.90;;;;;;;19.03;52.73;101581.69;4990912;28;20068;-64
2022/05/22 10:15:52;;;;;;;10.48;6.85;;;;;;;18.94;51.87;101591.38;4959389;28;20185;-62
2022/05/22 10:18:36;;;;;;;10.98;7.47;;;;;;;19.07;51.45;101577.75;4975362;28;20113;-63
2022/05/22 10:21:01;;;;;;;14.23;7.68;;;;;;;19.13;50.76;101592.06;4992192;28;20113;-67
2022/05/22 10:24:01;;;;;;;12.43;8.30;;;;;;;19.19;52.32;101586.16;4992003;28;20105;-63
2022/05/22 10:26:48;;;;;;;13.15;8.18;;;;;;;19.23;51.87;101576.97;4990661;28;20296;-66
2022/05/22 10:29:16;;;;;;;10.65;7.72;;;;;;;19.28;52.28;101579.94;4991710;28;20056;-66
2022/05/22 10:31:48;;;;;;;12.30;7.18;;;;;;;19.52;52.38;101577.28;4991514;28;20108;-62
2022/05/22 10:34:37;;;;;;;11.63;7.55;;;;;;;19.75;52.90;101571.38;4991504;28;20061;-64
2022/05/22 10:37:16;;;;;;;11.90;8.02;;;;;;;19.79;51.17;101557.72;4991746;28;20026;-63
2022/05/22 10:39:41;;;;;;;11.52;7.50;;;;;;;19.89;49.96;101557.53;4960714;28;20122;-63
2022/05/22 10:45:08;;;;;;;11.65;8.55;;;;;;;19.97;49.92;101560.16;4990829;28;20077;-63
2022/05/22 10:47:35;;;;;;;11.18;7.75;;;;;;;20.00;49.33;101549.25;4971410;28;20065;-63
2022/05/22 10:50:13;;;;;;;11.77;7.35;;;;;;;20.10;48.20;101549.91;4984152;28;20109;-64
2022/05/22 10:52:38;;;;;;;11.05;7.25;;;;;;;20.06;48.60;101545.94;4988655;28;20057;-63
2022/05/22 10:55:15;;;;;;;11.10;7.95;;;;;;;19.89;48.50;101552.25;4979600;28;20027;-63
2022/05/22 10:57:40;;;;;;;12.35;7.65;;;;;;;19.91;48.72;101544.22;4981514;28;20048;-65
2022/05/22 11:00:15;;;;;;;13.45;7.75;;;;;;;19.78;48.97;101540.25;4987336;28;20019;-63
2022/05/22 11:02:40;;;;;;;10.82;7.75;;;;;;;19.79;48.34;101535.84;4985452;28;20044;-63
2022/05/22 11:05:27;;;;;;;11.80;7.18;;;;;;;19.85;50.78;101543.88;4989816;28;20121;-65
2022/05/22 11:07:55;;;;;;;10.65;7.53;;;;;;;19.81;49.40;101524.16;4991113;28;20034;-65
2022/05/22 11:10:33;;;;;;;11.98;7.38;;;;;;;19.95;49.30;101525.25;4990717;28;20065;-63
2022/05/22 11:13:09;;;;;;;13.20;7.32;;;;;;;19.98;49.68;101521.47;4990858;28;20546;-63
2022/05/22 11:15:42;;;;;;;10.13;7.25;;;;;;;20.07;48.56;101523.91;4991000;28;20030;-66
2022/05/22 11:18:26;;;;;;;11.23;7.70;;;;;;;20.19;47.88;101505.09;4991147;28;20471;-63
2022/05/22 11:21:04;;;;;;;10.30;7.53;;;;;;;20.10;47.31;101513.03;4990638;28;20064;-63
2022/05/22 11:23:29;;;;;;;11.27;6.45;;;;;;;20.26;49.21;101504.25;4984607;28;20030;-66
2022/05/22 11:26:31;;;;;;;10.50;7.13;;;;;;;20.32;48.73;101500.09;4978012;28;20077;-63
2022/05/22 11:29:06;;;;;;;11.70;8.23;;;;;;;20.12;48.00;101500.50;4974971;28;20531;-65
2022/05/22 11:31:55;;;;;;;12.23;8.20;;;;;;;20.30;48.21;101487.09;4980951;28;20026;-64
2022/05/22 11:34:59;;;;;;;10.48;7.63;;;;;;;20.24;48.67;101495.66;4958561;28;20531;-66
2022/05/22 11:37:33;;;;;;;12.95;8.25;;;;;;;20.34;47.01;101491.00;4980115;28;20015;-63
2022/05/22 11:40:14;;;;;;;11.07;7.90;;;;;;;20.38;47.41;101483.59;4971856;28;20438;-63
2022/05/22 11:42:40;;;;;;;10.43;9.05;;;;;;;20.06;45.95;101474.84;4990563;28;20034;-65
2022/05/22 11:45:18;;;;;;;10.35;7.90;;;;;;;20.30;47.61;101486.25;4972910;28;20030;-66
2022/05/22 11:48:07;;;;;;;12.90;8.32;;;;;;;20.34;47.76;101482.28;4990541;28;20036;-62
2022/05/22 11:50:45;;;;;;;11.55;8.52;;;;;;;20.28;46.16;101477.72;4971254;28;20049;-63